»·PEaware :: DAL2189 KSLC-KPDX

DAL2189 :: KSLC-KPDX

FLIGHT INFORMATION

Flight Status: Arrived
Operator:
Delta Air Lines
More flights by this operator :: More flights under this callsign
Pilot: Joe P. (13940)
Aircraft: MCDONNELL-DOUGLAS MD-82
(MD82)
More flights by this aircraft type
Origin: KSLC Salt Lake City Intl
United States
Destination: KPDX Portland Intl
United States
More flights between these airports :: More routes between these airports
Route: +TWF4 TWF BOI BKE JOTBA HHOOD4
File this flight plan on PilotEdge
Remarks: SEL / ABCD KSEA -PBN / B3B4B5D3D4 DOF / 180506 REG / N904DL EET / KZSE0058
Altitude:
(Current/Filed)
36,000ft
Speed:
(Current/Filed)
439kts
Departed: 11-May-18 08:11 AM
Arrived: 11-May-18 09:43 AM
Distance/Time
Traveled:
546nm/1:32
Distance/Time
To Go:
Arrived

Flight Plot

Page will automatically refresh every two minutes.

Flight plan parsing failed; only flown route is shown


Map Options




Map Legend


Flown Route
Filed Route
Departure Airport
Arrival Airport
Navaid (VOR, NDB)
Fix

Horizontal Profiles

Position Reports

Time Latitude Longitude Heading Altitude Ground
Speed
11-May-18 07:16 40.785586 -111.978056 231 4236ft 0kts
11-May-18 07:17 40.785586 -111.978056 231 4236ft 0kts
11-May-18 07:18 40.785586 -111.978056 231 4236ft 0kts
11-May-18 07:19 40.785586 -111.978056 231 4236ft 0kts
11-May-18 07:20 40.785586 -111.978056 231 4236ft 0kts
11-May-18 07:21 40.785586 -111.978056 231 4236ft 0kts
11-May-18 07:22 40.785586 -111.978056 231 4236ft 0kts
11-May-18 07:23 40.785586 -111.978056 231 4236ft 0kts
11-May-18 07:24 40.785586 -111.978056 231 4236ft 0kts
11-May-18 07:25 40.785586 -111.978056 231 4236ft 0kts
11-May-18 07:26 40.785586 -111.978056 231 4236ft 0kts
11-May-18 07:27 40.785586 -111.978056 231 4236ft 0kts
11-May-18 07:28 40.785586 -111.978056 231 4236ft 0kts
11-May-18 07:29 40.785586 -111.978056 231 4236ft 0kts
11-May-18 07:30 40.785586 -111.978056 231 4236ft 0kts
11-May-18 07:31 40.785586 -111.978056 231 4236ft 0kts
11-May-18 07:32 40.785586 -111.978056 231 4236ft 0kts
11-May-18 07:33 40.785586 -111.978056 231 4236ft 0kts
11-May-18 07:34 40.785586 -111.978056 231 4236ft 0kts
11-May-18 07:35 40.785586 -111.978056 231 4236ft 0kts
11-May-18 07:36 40.785586 -111.978056 231 4236ft 0kts
11-May-18 07:37 40.785586 -111.978056 231 4236ft 0kts
11-May-18 07:38 40.785586 -111.978056 231 4236ft 0kts
11-May-18 07:39 40.785586 -111.978056 231 4236ft 0kts
11-May-18 07:40 40.785586 -111.978056 231 4236ft 0kts
11-May-18 07:41 40.785586 -111.978056 231 4236ft 0kts
11-May-18 07:42 40.785586 -111.978056 231 4236ft 0kts
11-May-18 07:43 40.785586 -111.978056 231 4236ft 0kts
11-May-18 07:44 40.785586 -111.978056 231 4236ft 0kts
11-May-18 07:45 40.785586 -111.978056 231 4236ft 0kts
11-May-18 07:46 40.785586 -111.978056 231 4236ft 0kts
11-May-18 07:47 40.785586 -111.978056 231 4236ft 0kts
11-May-18 07:48 40.785586 -111.978056 231 4236ft 0kts
11-May-18 07:49 40.785586 -111.978056 231 4236ft 0kts
11-May-18 07:50 40.785586 -111.978056 231 4236ft 0kts
11-May-18 07:51 40.785586 -111.978056 231 4236ft 0kts
11-May-18 07:52 40.785586 -111.978056 231 4236ft 0kts
11-May-18 07:53 40.785586 -111.978056 231 4236ft 0kts
11-May-18 07:54 40.785586 -111.978056 231 4236ft 0kts
11-May-18 07:55 40.785586 -111.978056 231 4236ft 0kts
11-May-18 07:56 40.785586 -111.978056 231 4236ft 0kts
11-May-18 07:57 40.785586 -111.978056 231 4236ft 0kts
11-May-18 07:58 40.785586 -111.978056 231 4236ft 0kts
11-May-18 07:59 40.785611 -111.978014 231 4236ft 1kts
11-May-18 08:00 40.786244 -111.977485 191 4236ft 2kts
11-May-18 08:01 40.786574 -111.977454 176 4236ft 0kts
11-May-18 08:02 40.786574 -111.977454 176 4236ft 0kts
11-May-18 08:03 40.786574 -111.977454 176 4236ft 0kts
11-May-18 08:04 40.786574 -111.977454 176 4236ft 0kts
11-May-18 08:05 40.786039 -111.977182 156 4236ft 6kts
11-May-18 08:06 40.782868 -111.976329 172 4236ft 16kts
11-May-18 08:07 40.777537 -111.975259 175 4236ft 16kts
11-May-18 08:08 40.774562 -111.974806 128 4236ft 0kts
11-May-18 08:09 40.774560 -111.974802 128 4236ft 0kts
11-May-18 08:10 40.774694 -111.973961 62 4236ft 6kts
11-May-18 08:11 40.778743 -111.973539 353 4236ft 51kts
11-May-18 08:12 40.815509 -111.977205 353 5059ft 169kts
11-May-18 08:13 40.847800 -112.026013 292 6204ft 238kts
11-May-18 08:14 40.870463 -112.120778 288 8320ft 282kts
11-May-18 08:15 40.897153 -112.219522 303 10853ft 287kts
11-May-18 08:16 40.955442 -112.293025 317 12737ft 301kts
11-May-18 08:17 41.020221 -112.365294 314 14649ft 308kts
11-May-18 08:18 41.085929 -112.440309 318 16427ft 319kts
11-May-18 08:19 41.162190 -112.504816 322 18088ft 331kts
11-May-18 08:20 41.237225 -112.577145 315 19675ft 335kts
11-May-18 08:21 41.310078 -112.663169 305 20075ft 370kts
11-May-18 08:22 41.379955 -112.768929 305 21562ft 386kts
11-May-18 08:23 41.452164 -112.876858 304 23172ft 394kts
11-May-18 08:24 41.524755 -112.988407 303 24629ft 402kts
11-May-18 08:25 41.599129 -113.102555 303 25884ft 410kts
11-May-18 08:26 41.674509 -113.218360 303 26966ft 418kts
11-May-18 08:27 41.751109 -113.336347 303 27953ft 424kts
11-May-18 08:28 41.828879 -113.457272 303 28813ft 430kts
11-May-18 08:29 41.907462 -113.579892 303 29525ft 438kts
11-May-18 08:30 41.973489 -113.683186 303 30365ft 436kts
11-May-18 08:31 42.065719 -113.826816 304 31553ft 431kts
11-May-18 08:32 42.142865 -113.948768 304 32516ft 425kts
11-May-18 08:33 42.219052 -114.070100 305 33345ft 421kts
11-May-18 08:34 42.294514 -114.189521 305 34157ft 416kts
11-May-18 08:35 42.369288 -114.308775 306 34711ft 415kts
11-May-18 08:36 42.444118 -114.428519 306 35238ft 415kts
11-May-18 08:37 42.506275 -114.527710 307 35655ft 414kts
11-May-18 08:38 42.581985 -114.645656 308 35967ft 418kts
11-May-18 08:39 42.658939 -114.764786 308 35967ft 416kts
11-May-18 08:40 42.735504 -114.883989 308 35963ft 417kts
11-May-18 08:41 42.812099 -115.003676 308 35960ft 419kts
11-May-18 08:42 42.888386 -115.123378 308 35961ft 419kts
11-May-18 08:43 42.964504 -115.243396 308 35962ft 418kts
11-May-18 08:44 43.040855 -115.364229 308 35964ft 418kts
11-May-18 08:45 43.116807 -115.484870 309 35967ft 419kts
11-May-18 08:46 43.192638 -115.606008 309 36006ft 418kts
11-May-18 08:47 43.268493 -115.727431 309 35984ft 422kts
11-May-18 08:48 43.344419 -115.849556 309 35989ft 419kts
11-May-18 08:49 43.420448 -115.972129 309 36003ft 421kts
11-May-18 08:50 43.495765 -116.095290 309 35953ft 418kts
11-May-18 08:51 43.573538 -116.215428 315 36028ft 423kts
11-May-18 08:52 43.661649 -116.322986 318 35987ft 418kts
11-May-18 08:53 43.749635 -116.429595 317 35993ft 421kts
11-May-18 08:54 43.836793 -116.537289 317 36008ft 422kts
11-May-18 08:55 43.924201 -116.645166 317 36024ft 419kts
11-May-18 08:56 44.011203 -116.752855 318 36031ft 417kts
11-May-18 08:57 44.098583 -116.861045 318 36037ft 421kts
11-May-18 08:58 44.185637 -116.969868 318 36038ft 421kts
11-May-18 08:59 44.272311 -117.078118 318 36040ft 420kts
11-May-18 09:00 44.359049 -117.187260 318 36044ft 419kts
11-May-18 09:01 44.445273 -117.296326 318 36046ft 416kts
11-May-18 09:02 44.530860 -117.404872 318 36080ft 415kts
11-May-18 09:03 44.616857 -117.514402 318 36100ft 417kts
11-May-18 09:04 44.702540 -117.623751 318 36090ft 416kts
11-May-18 09:05 44.788139 -117.734040 318 36106ft 415kts
11-May-18 09:06 44.850116 -117.870164 290 36102ft 426kts
11-May-18 09:07 44.873438 -118.034004 280 36105ft 428kts
11-May-18 09:08 44.892763 -118.199102 283 36115ft 426kts
11-May-18 09:09 44.914930 -118.364018 283 36124ft 427kts
11-May-18 09:10 44.935623 -118.528591 283 36134ft 427kts
11-May-18 09:11 44.956404 -118.693891 283 36141ft 426kts
11-May-18 09:12 44.976965 -118.858816 283 36145ft 426kts
11-May-18 09:13 44.997480 -119.023460 283 36170ft 426kts
11-May-18 09:14 45.017246 -119.188827 284 36179ft 426kts
11-May-18 09:15 45.037140 -119.353469 284 36182ft 425kts
11-May-18 09:16 45.056918 -119.518341 284 36181ft 426kts
11-May-18 09:17 45.076029 -119.683862 284 36185ft 425kts
11-May-18 09:18 45.094913 -119.849130 284 36190ft 426kts
11-May-18 09:19 45.113865 -120.014812 284 36194ft 426kts
11-May-18 09:20 45.132053 -120.179269 283 36184ft 424kts
11-May-18 09:21 45.147945 -120.344144 286 34119ft 424kts
11-May-18 09:22 45.169096 -120.508674 292 31781ft 421kts
11-May-18 09:23 45.219049 -120.653289 307 29300ft 403kts
11-May-18 09:24 45.272716 -120.789246 304 26982ft 388kts
11-May-18 09:25 45.323403 -120.922283 305 24611ft 375kts
11-May-18 09:26 45.372444 -121.050791 305 22332ft 365kts
11-May-18 09:27 45.419725 -121.178159 300 19427ft 374kts
11-May-18 09:28 45.452728 -121.323164 290 16494ft 371kts
11-May-18 09:29 45.477259 -121.453297 292 15779ft 328kts
11-May-18 09:30 45.502332 -121.577897 291 12555ft 320kts
11-May-18 09:31 45.525248 -121.693806 291 11033ft 274kts
11-May-18 09:32 45.533123 -121.803849 276 10014ft 264kts
11-May-18 09:33 45.536396 -121.911475 276 8497ft 267kts
11-May-18 09:34 45.541016 -122.012239 278 7169ft 243kts
11-May-18 09:35 45.516538 -122.095306 236 6503ft 231kts
11-May-18 09:36 45.478921 -122.169715 236 5209ft 230kts
11-May-18 09:37 45.473842 -122.254080 273 4078ft 215kts
11-May-18 09:38 45.494858 -122.328500 301 3972ft 191kts
11-May-18 09:39 45.515998 -122.398668 301 2658ft 199kts
11-May-18 09:40 45.542158 -122.460185 297 1694ft 171kts
11-May-18 09:41 45.562350 -122.512288 297 886ft 136kts
11-May-18 09:42 45.580497 -122.559301 300 206ft 134kts
11-May-18 09:43 45.591949 -122.588939 271 27ft 12kts
11-May-18 09:44 45.591980 -122.589486 275 27ft 0kts
11-May-18 09:45 45.592148 -122.591906 270 27ft 16kts
11-May-18 09:46 45.591339 -122.593423 195 27ft 3kts
11-May-18 09:47 45.591085 -122.593607 207 27ft 0kts
11-May-18 09:48 45.591083 -122.593609 207 27ft 0kts
11-May-18 09:49 45.591083 -122.593609 207 27ft 0kts
11-May-18 09:50 45.591083 -122.593609 207 27ft 0kts
11-May-18 09:51 45.591083 -122.593609 207 27ft 0kts
11-May-18 09:52 45.591083 -122.593609 207 27ft 0kts
11-May-18 09:53 45.591083 -122.593609 207 27ft 0kts
11-May-18 09:54 45.591083 -122.593609 207 27ft 0kts
11-May-18 09:55 45.591083 -122.593609 207 27ft 0kts
11-May-18 09:56 45.591083 -122.593609 207 27ft 0kts
11-May-18 09:57 45.591083 -122.593609 207 27ft 0kts

Navigation Log

Ident Type
Flight plan parsing failed, navigation log unavailable